Time;durP1;ratioP1;P1;durP2;ratioP2;P2;SDS_P1;SDS_P2;PMS_P1;PMS_P2;Temp;Humidity;BMP_temperature;BMP_pressure;BME280_temperature;BME280_humidity;BME280_pressure;Samples;Min_cycle;Max_cycle;Signal;HPM_P1;HPM_P2
2024/03/17 00:01:02;;;;;;;8.52;3.38;;;16.20;75.50;;;;;;4182487;28;20067;-49
2024/03/17 00:03:42;;;;;;;4.72;3.42;;;16.20;75.20;;;;;;4173232;28;20187;-49
2024/03/17 00:06:22;;;;;;;9.30;3.42;;;16.20;75.30;;;;;;4174231;28;20056;-49
2024/03/17 00:09:06;;;;;;;12.10;3.70;;;16.20;75.30;;;;;;4178335;28;20056;-50
2024/03/17 00:11:46;;;;;;;8.82;2.97;;;16.20;75.30;;;;;;4186737;28;20144;-48
2024/03/17 00:14:28;;;;;;;8.13;3.13;;;16.20;75.30;;;;;;4187586;28;20063;-50
2024/03/17 00:17:09;;;;;;;;;;;16.10;75.30;;;;;;4187650;28;20193;-49
2024/03/17 00:19:48;;;;;;;9.52;3.35;;;16.10;75.40;;;;;;4156008;28;19928;-50
2024/03/17 00:22:28;;;;;;;9.80;3.05;;;16.10;76.60;;;;;;4161759;28;20044;-52
2024/03/17 00:25:08;;;;;;;5.68;3.53;;;16.10;76.30;;;;;;4181259;28;20064;-50
2024/03/17 00:27:49;;;;;;;6.63;3.20;;;16.10;76.10;;;;;;4185134;28;20062;-52
2024/03/17 00:30:31;;;;;;;9.00;3.67;;;16.10;76.00;;;;;;4171508;28;20064;-52
2024/03/17 00:33:11;;;;;;;5.53;3.00;;;16.10;76.00;;;;;;4170344;28;20052;-48
2024/03/17 00:35:51;;;;;;;7.28;3.17;;;16.10;76.10;;;;;;4171613;28;20141;-48
2024/03/17 00:38:30;;;;;;;12.60;2.78;;;16.10;76.10;;;;;;4179425;28;20078;-47
2024/03/17 00:41:10;;;;;;;7.40;2.70;;;16.00;76.00;;;;;;4172617;28;20059;-48
2024/03/17 00:43:49;;;;;;;7.13;3.03;;;16.00;76.00;;;;;;4171651;28;20475;-47
2024/03/17 00:46:30;;;;;;;6.32;2.97;;;16.00;76.00;;;;;;4185687;28;20052;-47
2024/03/17 00:49:10;;;;;;;5.00;2.95;;;16.00;76.10;;;;;;4170820;28;20098;-45
2024/03/17 00:51:50;;;;;;;7.27;2.83;;;16.00;76.00;;;;;;4186112;28;20141;-47
2024/03/17 00:54:30;;;;;;;7.13;2.97;;;16.00;76.10;;;;;;4186942;28;20064;-46
2024/03/17 00:57:10;;;;;;;6.10;2.40;;;16.00;76.10;;;;;;4185689;28;20051;-47
2024/03/17 00:59:50;;;;;;;9.00;2.60;;;16.00;76.10;;;;;;4170666;28;20079;-46
2024/03/17 01:02:30;;;;;;;5.95;2.90;;;16.00;76.00;;;;;;4169998;28;20079;-47
2024/03/17 01:05:10;;;;;;;5.90;3.28;;;16.00;75.90;;;;;;4170851;28;20113;-49
2024/03/17 01:07:50;;;;;;;5.57;2.65;;;15.90;75.90;;;;;;4171562;28;20056;-46
2024/03/17 01:10:29;;;;;;;3.90;2.70;;;16.00;76.00;;;;;;4163264;28;20056;-46
2024/03/17 01:13:10;;;;;;;8.68;3.20;;;15.90;76.00;;;;;;4187010;28;20044;-46
2024/03/17 01:15:52;;;;;;;4.88;2.50;;;16.00;76.10;;;;;;4170501;28;20598;-46
2024/03/17 01:18:32;;;;;;;3.88;2.10;;;15.90;76.00;;;;;;4168364;28;20059;-46
2024/03/17 01:21:12;;;;;;;8.27;3.10;;;15.90;76.20;;;;;;4186836;28;20537;-48
2024/03/17 01:23:52;;;;;;;7.07;2.58;;;15.90;76.30;;;;;;4185406;28;20510;-48
2024/03/17 01:26:32;;;;;;;6.97;2.40;;;15.90;76.20;;;;;;4186592;28;20605;-47
2024/03/17 01:29:12;;;;;;;7.93;2.80;;;15.90;76.30;;;;;;4170547;28;20079;-47
2024/03/17 01:31:51;;;;;;;5.93;2.15;;;15.90;76.40;;;;;;4170577;28;20515;-50
2024/03/17 01:34:31;;;;;;;6.10;2.70;;;15.90;76.30;;;;;;4158537;28;20098;-45
2024/03/17 01:37:11;;;;;;;4.65;2.30;;;15.90;76.20;;;;;;4170304;28;20056;-50
2024/03/17 01:39:51;;;;;;;6.32;3.22;;;15.80;76.20;;;;;;4170158;28;20095;-48
2024/03/17 01:42:30;;;;;;;6.88;2.30;;;15.80;76.00;;;;;;4171010;28;20110;-45
2024/03/17 01:45:28;;;;;;;6.63;3.33;;;15.80;75.90;;;;;;4159887;28;20051;-47
2024/03/17 01:48:14;;;;;;;8.27;2.60;;;15.80;75.10;;;;;;4181808;28;20055;-48
2024/03/17 01:50:56;;;;;;;5.28;2.33;;;15.80;75.70;;;;;;4186235;28;20071;-49
2024/03/17 01:53:40;;;;;;;8.32;2.78;;;15.80;75.60;;;;;;4185890;28;20098;-46
2024/03/17 01:56:20;;;;;;;6.78;2.50;;;15.80;75.70;;;;;;4186230;28;20059;-47
2024/03/17 01:59:00;;;;;;;6.28;2.38;;;15.70;75.80;;;;;;4186394;28;20454;-48
2024/03/17 02:01:40;;;;;;;5.28;2.25;;;15.70;76.00;;;;;;4186429;28;20094;-48
2024/03/17 02:04:22;;;;;;;8.15;2.83;;;15.70;75.90;;;;;;4185929;28;20226;-46
2024/03/17 02:07:00;;;;;;;2.55;2.35;;;15.70;76.00;;;;;;4185725;28;20098;-46
2024/03/17 02:09:43;;;;;;;2.83;1.73;;;15.70;76.10;;;;;;4186127;28;20051;-49
2024/03/17 02:12:22;;;;;;;5.70;2.78;;;15.70;76.10;;;;;;4174623;28;20062;-51
2024/03/17 02:15:05;;;;;;;3.25;2.10;;;15.70;76.20;;;;;;4169888;28;20052;-50
2024/03/17 02:17:44;;;;;;;4.25;2.20;;;15.70;76.10;;;;;;4186363;28;20060;-49
2024/03/17 02:20:54;;;;;;;5.88;2.30;;;15.70;76.00;;;;;;4171298;28;20114;-49
2024/03/17 02:23:26;;;;;;;2.38;2.10;;;15.60;76.80;;;;;;4168636;28;20377;-47
2024/03/17 02:26:06;;;;;;;4.07;2.25;;;15.60;75.90;;;;;;4186210;28;20102;-47
2024/03/17 02:28:46;;;;;;;5.20;2.70;;;15.60;75.90;;;;;;4181026;28;20171;-46
2024/03/17 02:31:26;;;;;;;4.55;2.60;;;15.60;75.90;;;;;;4169251;28;20095;-46
2024/03/17 02:34:05;;;;;;;3.95;2.28;;;15.60;75.90;;;;;;4180712;28;20047;-45
2024/03/17 02:36:45;;;;;;;3.25;2.33;;;15.60;75.80;;;;;;4169345;28;20451;-45
2024/03/17 02:39:33;;;;;;;5.78;2.33;;;15.60;75.90;;;;;;4170555;28;20106;-47
2024/03/17 02:42:14;;;;;;;4.13;2.17;;;15.60;76.00;;;;;;4169182;28;20052;-46
2024/03/17 02:44:54;;;;;;;4.95;2.58;;;15.50;76.00;;;;;;4175787;28;20052;-48
2024/03/17 02:47:34;;;;;;;3.22;2.30;;;15.50;75.80;;;;;;4174778;28;20060;-50
2024/03/17 02:50:14;;;;;;;3.00;1.77;;;15.50;75.90;;;;;;4185746;28;20051;-49
2024/03/17 02:52:54;;;;;;;3.47;2.00;;;15.50;75.90;;;;;;4185298;28;20073;-48
2024/03/17 02:55:35;;;;;;;4.10;2.90;;;15.50;75.90;;;;;;4168642;28;20149;-49
2024/03/17 02:58:15;;;;;;;2.95;2.30;;;15.50;75.90;;;;;;4185533;28;20140;-54
2024/03/17 03:00:55;;;;;;;3.97;2.17;;;15.50;76.00;;;;;;4177607;28;20055;-57
2024/03/17 03:03:36;;;;;;;2.65;1.98;;;15.50;76.10;;;;;;4167636;28;20103;-50
2024/03/17 03:06:19;;;;;;;3.03;2.28;;;15.50;76.10;;;;;;4167427;28;20507;-51
2024/03/17 03:08:58;;;;;;;3.38;2.35;;;15.50;76.00;;;;;;4152767;28;20048;-51
2024/03/17 03:11:40;;;;;;;4.18;2.40;;;15.40;76.10;;;;;;4152382;28;20127;-50
2024/03/17 03:14:20;;;;;;;3.03;2.40;;;15.40;75.90;;;;;;4172853;28;20059;-49
2024/03/17 03:17:01;;;;;;;2.65;2.30;;;15.40;76.10;;;;;;4170093;28;20071;-47
2024/03/17 03:19:41;;;;;;;2.78;2.13;;;15.40;76.00;;;;;;4189033;28;20166;-49
2024/03/17 03:22:21;;;;;;;2.38;2.10;;;15.40;76.10;;;;;;4188800;28;20147;-48
2024/03/17 03:25:02;;;;;;;3.13;2.50;;;15.40;76.00;;;;;;4175527;28;20491;-50
2024/03/17 03:27:43;;;;;;;4.10;2.10;;;15.40;75.30;;;;;;4172117;28;20138;-48
2024/03/17 03:30:23;;;;;;;;;;;15.40;76.00;;;;;;4173095;28;20047;-46
2024/03/17 03:33:05;;;;;;;2.13;1.85;;;15.30;76.00;;;;;;4172530;28;19931;-49
2024/03/17 03:35:45;;;;;;;4.45;2.22;;;15.30;77.00;;;;;;4158240;28;20146;-47
2024/03/17 03:38:25;;;;;;;7.65;2.60;;;15.30;76.80;;;;;;4171996;28;20051;-51
2024/03/17 03:41:09;;;;;;;4.57;1.95;;;15.30;76.60;;;;;;4155024;28;20558;-46
2024/03/17 03:43:51;;;;;;;4.90;2.00;;;15.30;76.40;;;;;;4178836;28;20109;-46
2024/03/17 03:46:31;;;;;;;6.40;2.45;;;15.30;76.40;;;;;;4186898;28;20055;-49
2024/03/17 03:49:11;;;;;;;3.63;1.80;;;15.30;76.50;;;;;;4187695;28;20495;-46
2024/03/17 03:51:51;;;;;;;4.22;1.92;;;15.30;76.50;;;;;;4185076;28;20060;-48
2024/03/17 03:54:31;;;;;;;7.43;1.80;;;15.30;76.50;;;;;;4173200;28;20072;-46
2024/03/17 03:57:11;;;;;;;2.45;2.15;;;15.30;76.60;;;;;;4170470;28;20582;-46
2024/03/17 03:59:52;;;;;;;1.92;1.80;;;15.20;76.50;;;;;;4170883;28;20055;-46
2024/03/17 04:02:34;;;;;;;3.95;2.20;;;15.20;76.40;;;;;;4171866;28;20048;-45
2024/03/17 04:05:14;;;;;;;2.95;2.28;;;15.20;76.50;;;;;;4171758;28;20155;-46
2024/03/17 04:07:54;;;;;;;3.53;3.22;;;15.20;76.50;;;;;;4171574;28;20051;-45
2024/03/17 04:10:35;;;;;;;2.25;1.58;;;15.20;76.50;;;;;;4157778;28;20052;-45
2024/03/17 04:13:15;;;;;;;4.80;2.00;;;15.20;76.50;;;;;;4171474;28;20455;-47
2024/03/17 04:15:56;;;;;;;2.67;2.00;;;15.20;76.50;;;;;;4187051;28;20114;-46
2024/03/17 04:18:37;;;;;;;5.47;2.20;;;15.20;76.50;;;;;;4187156;28;20055;-49
2024/03/17 04:21:17;;;;;;;6.38;2.13;;;15.20;76.70;;;;;;4188159;28;20055;-46
2024/03/17 04:23:57;;;;;;;2.70;1.90;;;15.20;76.60;;;;;;4187843;28;20133;-47
2024/03/17 04:26:38;;;;;;;5.78;2.35;;;15.20;77.60;;;;;;4176142;28;20109;-47
2024/03/17 04:29:18;;;;;;;3.13;2.20;;;15.10;76.70;;;;;;4165421;28;20044;-46
2024/03/17 04:32:00;;;;;;;5.88;2.53;;;15.10;76.80;;;;;;4161920;28;20086;-46
2024/03/17 04:34:40;;;;;;;7.15;2.00;;;15.10;77.00;;;;;;4169491;28;20556;-46
2024/03/17 04:37:22;;;;;;;5.78;2.33;;;15.10;77.00;;;;;;4187710;28;20055;-50
2024/03/17 04:40:04;;;;;;;2.97;2.40;;;15.10;76.90;;;;;;4188000;28;20098;-46
2024/03/17 04:42:44;;;;;;;6.95;2.50;;;15.10;76.80;;;;;;4187296;28;20102;-45
2024/03/17 04:45:34;;;;;;;4.97;2.17;;;15.10;76.80;;;;;;4171892;28;20206;-51
2024/03/17 04:48:15;;;;;;;5.03;2.33;;;15.10;76.50;;;;;;4187392;28;20502;-48
2024/03/17 04:50:55;;;;;;;2.80;2.17;;;15.00;77.70;;;;;;4170990;28;20060;-48
2024/03/17 04:53:35;;;;;;;4.95;2.05;;;15.00;76.80;;;;;;4185020;28;20147;-50
2024/03/17 04:56:16;;;;;;;4.68;2.20;;;15.00;76.90;;;;;;4187288;28;20078;-48
2024/03/17 04:58:56;;;;;;;8.38;2.53;;;15.00;77.10;;;;;;4187220;28;20109;-47
2024/03/17 05:01:36;;;;;;;4.55;2.28;;;15.00;77.00;;;;;;4175951;28;20056;-48
2024/03/17 05:04:18;;;;;;;7.32;2.60;;;15.00;76.90;;;;;;4169573;28;20065;-47
2024/03/17 05:06:58;;;;;;;4.65;2.25;;;15.00;76.90;;;;;;4170031;28;20902;-47
2024/03/17 05:09:38;;;;;;;7.93;3.17;;;15.00;77.00;;;;;;4170895;28;20464;-48
2024/03/17 05:12:19;;;;;;;7.00;2.75;;;15.00;77.00;;;;;;4177709;28;20051;-48
2024/03/17 05:14:59;;;;;;;3.97;2.42;;;15.00;76.90;;;;;;4182807;28;20074;-48
2024/03/17 05:17:39;;;;;;;4.60;2.63;;;14.90;76.70;;;;;;4186909;28;20528;-48
2024/03/17 05:20:20;;;;;;;4.88;3.00;;;14.90;76.70;;;;;;4186641;28;20395;-48
2024/03/17 05:23:01;;;;;;;4.22;3.10;;;14.90;76.70;;;;;;4186995;28;20079;-51
2024/03/17 05:25:41;;;;;;;3.53;2.85;;;14.90;76.80;;;;;;4167350;28;20076;-48
2024/03/17 05:28:21;;;;;;;6.85;3.35;;;14.90;76.90;;;;;;4167607;28;20058;-47
2024/03/17 05:31:01;;;;;;;4.47;2.75;;;14.90;77.00;;;;;;4158781;28;20051;-49
2024/03/17 05:33:41;;;;;;;7.45;3.13;;;14.90;77.10;;;;;;4181897;28;20103;-47
2024/03/17 05:36:22;;;;;;;4.63;3.42;;;14.90;77.10;;;;;;4187179;28;20098;-49
2024/03/17 05:39:02;;;;;;;6.28;3.63;;;14.90;77.20;;;;;;4186342;28;20141;-47
2024/03/17 05:41:43;;;;;;;7.60;3.63;;;14.90;77.40;;;;;;4185655;28;20066;-51
2024/03/17 05:44:23;;;;;;;9.68;3.53;;;14.90;77.40;;;;;;4170157;28;20052;-48
2024/03/17 05:47:03;;;;;;;5.25;3.20;;;14.90;77.40;;;;;;4185060;28;20044;-48
2024/03/17 05:49:44;;;;;;;7.70;3.33;;;14.90;77.30;;;;;;4186102;28;20059;-48
2024/03/17 05:52:25;;;;;;;9.80;3.70;;;14.80;76.90;;;;;;4185594;28;20050;-48
2024/03/17 05:55:06;;;;;;;6.70;3.95;;;14.80;76.60;;;;;;4183297;28;20469;-49
2024/03/17 05:57:46;;;;;;;7.00;3.83;;;14.80;76.60;;;;;;4183619;28;20484;-46
2024/03/17 06:00:26;;;;;;;14.02;4.00;;;14.80;76.30;;;;;;4186081;28;20055;-47
2024/03/17 06:03:07;;;;;;;11.55;3.45;;;14.80;76.30;;;;;;4184680;28;20058;-47
2024/03/17 06:05:47;;;;;;;10.77;3.97;;;14.80;76.50;;;;;;4169495;28;20052;-48
2024/03/17 06:08:28;;;;;;;6.25;3.13;;;14.80;76.60;;;;;;4165568;28;20056;-50
2024/03/17 06:11:09;;;;;;;7.07;2.90;;;14.80;76.30;;;;;;4176175;28;20056;-48
2024/03/17 06:13:49;;;;;;;4.07;3.05;;;14.80;76.60;;;;;;4178575;28;20064;-48
2024/03/17 06:16:30;;;;;;;5.88;3.13;;;14.80;76.60;;;;;;4185742;28;20154;-48
2024/03/17 06:19:10;;;;;;;5.35;3.00;;;14.80;76.80;;;;;;4183982;28;20094;-53
2024/03/17 06:21:51;;;;;;;7.57;3.05;;;14.80;76.80;;;;;;4172451;28;20075;-48
2024/03/17 06:24:32;;;;;;;3.85;2.40;;;14.80;76.90;;;;;;4165336;28;20565;-51
2024/03/17 06:27:13;;;;;;;6.00;2.50;;;14.80;77.00;;;;;;4185815;28;20066;-48
2024/03/17 06:29:55;;;;;;;4.30;3.15;;;14.80;77.00;;;;;;4184687;28;20195;-47
2024/03/17 06:32:34;;;;;;;3.05;2.45;;;14.80;77.10;;;;;;4181160;28;20341;-49
2024/03/17 06:35:15;;;;;;;4.50;2.55;;;14.80;77.30;;;;;;4176399;28;20060;-51
2024/03/17 06:37:56;;;;;;;3.65;2.10;;;14.80;77.40;;;;;;4168021;28;20055;-49
2024/03/17 06:40:38;;;;;;;4.40;2.25;;;14.80;77.40;;;;;;4152153;28;20751;-51
2024/03/17 06:43:18;;;;;;;6.18;2.45;;;14.80;77.20;;;;;;4169217;28;20048;-48
2024/03/17 06:45:59;;;;;;;6.95;2.58;;;14.80;77.20;;;;;;4182494;28;20498;-47
2024/03/17 06:48:39;;;;;;;3.80;2.50;;;14.80;77.20;;;;;;4184240;28;20423;-47
2024/03/17 06:51:19;;;;;;;5.03;2.20;;;14.80;77.10;;;;;;4168639;28;20394;-49
2024/03/17 06:53:58;;;;;;;5.82;2.65;;;14.80;77.90;;;;;;4167354;28;20534;-49
2024/03/17 06:56:40;;;;;;;4.43;3.15;;;14.80;76.90;;;;;;4188873;28;20060;-47
2024/03/17 06:59:20;;;;;;;;;;;14.80;76.90;;;;;;4186898;28;20055;-44
2024/03/17 07:02:01;;;;;;;6.18;2.55;;;14.80;77.00;;;;;;4182068;28;20460;-46
2024/03/17 07:04:41;;;;;;;4.88;2.70;;;14.70;77.70;;;;;;4179166;28;20050;-45
2024/03/17 07:07:21;;;;;;;8.70;2.88;;;14.80;77.70;;;;;;4185097;28;20784;-44
2024/03/17 07:10:04;;;;;;;7.35;2.45;;;14.70;77.60;;;;;;4179434;28;20059;-44
2024/03/17 07:12:46;;;;;;;4.45;2.53;;;14.70;77.70;;;;;;4174916;28;20063;-45
2024/03/17 07:15:26;;;;;;;5.38;2.53;;;14.70;77.70;;;;;;4181554;28;20051;-47
2024/03/17 07:18:06;;;;;;;5.63;2.13;;;14.80;77.80;;;;;;4188378;28;20190;-46
2024/03/17 07:20:47;;;;;;;5.05;2.83;;;14.90;78.00;;;;;;4188961;28;20060;-46
2024/03/17 07:23:27;;;;;;;8.00;2.40;;;15.00;77.00;;;;;;4187620;28;20102;-47
2024/03/17 07:26:09;;;;;;;5.47;2.28;;;15.20;76.80;;;;;;4171821;28;20074;-45
2024/03/17 07:28:50;;;;;;;5.97;2.55;;;15.40;75.00;;;;;;4172628;28;20114;-44
2024/03/17 07:31:30;;;;;;;4.38;1.70;;;15.50;74.30;;;;;;4173651;28;20399;-45
2024/03/17 07:34:10;;;;;;;2.75;1.95;;;15.50;73.90;;;;;;4171410;28;20051;-47
2024/03/17 07:36:50;;;;;;;4.85;2.20;;;15.60;73.60;;;;;;4154979;28;20126;-47
2024/03/17 07:39:32;;;;;;;5.30;2.00;;;15.60;73.40;;;;;;4155108;28;20083;-48
2024/03/17 07:42:13;;;;;;;5.75;1.80;;;15.60;73.40;;;;;;4179943;28;20075;-49
2024/03/17 07:44:54;;;;;;;10.18;2.45;;;15.60;73.20;;;;;;4175948;28;20121;-49
2024/03/17 07:47:36;;;;;;;6.30;1.92;;;15.60;73.00;;;;;;4172238;28;20052;-48
2024/03/17 07:50:17;;;;;;;6.63;1.70;;;15.60;72.80;;;;;;4188610;28;20083;-50
2024/03/17 07:52:57;;;;;;;5.97;2.10;;;15.60;72.80;;;;;;4187133;28;20090;-48
2024/03/17 07:55:37;;;;;;;6.20;1.92;;;15.70;72.60;;;;;;4174625;28;20051;-49
2024/03/17 07:58:17;;;;;;;3.70;1.88;;;15.70;72.40;;;;;;4185605;28;20069;-47
2024/03/17 08:01:02;;;;;;;5.47;2.08;;;15.80;72.20;;;;;;4186970;28;20118;-47
2024/03/17 08:03:45;;;;;;;2.72;1.52;;;15.80;71.80;;;;;;4180636;28;20086;-49
2024/03/17 08:06:25;;;;;;;4.40;1.77;;;15.80;71.60;;;;;;4170446;28;20099;-50
2024/03/17 08:09:07;;;;;;;3.40;1.65;;;15.80;71.40;;;;;;4176392;28;20147;-51
2024/03/17 08:11:47;;;;;;;3.83;1.33;;;15.80;71.20;;;;;;4173278;28;20064;-47
2024/03/17 08:14:27;;;;;;;4.20;1.92;;;15.80;70.90;;;;;;4184650;28;20478;-53
2024/03/17 08:17:09;;;;;;;4.45;1.88;;;15.80;70.60;;;;;;4146946;28;20107;-49
2024/03/17 08:19:49;;;;;;;5.30;1.98;;;15.70;70.40;;;;;;4172982;28;21009;-47
2024/03/17 08:22:30;;;;;;;4.20;1.73;;;15.70;70.50;;;;;;4169273;28;20040;-48
2024/03/17 08:25:10;;;;;;;3.17;1.48;;;15.60;70.10;;;;;;4168378;28;20095;-49
2024/03/17 08:27:50;;;;;;;8.32;2.00;;;15.60;71.10;;;;;;4171384;28;20114;-48
2024/03/17 08:30:31;;;;;;;7.65;2.15;;;15.50;70.30;;;;;;4165863;28;20107;-46
2024/03/17 08:33:12;;;;;;;5.13;1.58;;;15.50;70.60;;;;;;4170853;28;20080;-47
2024/03/17 08:35:56;;;;;;;8.20;1.88;;;15.50;70.40;;;;;;4170416;28;20097;-51
2024/03/17 08:38:38;;;;;;;5.28;1.73;;;15.50;70.30;;;;;;4186650;28;20051;-49
2024/03/17 08:41:18;;;;;;;4.70;1.60;;;15.40;70.40;;;;;;4182340;28;20055;-46
2024/03/17 08:43:58;;;;;;;7.30;1.60;;;15.40;70.40;;;;;;4169465;28;20187;-48
2024/03/17 08:46:38;;;;;;;4.95;1.73;;;15.30;70.50;;;;;;4178979;28;20098;-46
2024/03/17 08:49:19;;;;;;;4.22;1.45;;;15.30;70.60;;;;;;4184297;28;20055;-45
2024/03/17 08:51:59;;;;;;;6.57;1.63;;;15.30;70.60;;;;;;4174440;28;20522;-47
2024/03/17 08:54:40;;;;;;;6.68;1.55;;;15.20;70.60;;;;;;4165052;28;20451;-44
2024/03/17 08:57:20;;;;;;;7.97;2.03;;;15.20;70.70;;;;;;4165609;28;20055;-46
2024/03/17 08:59:59;;;;;;;5.57;1.55;;;15.10;70.90;;;;;;4187422;28;20060;-47
2024/03/17 09:02:41;;;;;;;6.05;2.25;;;15.10;71.00;;;;;;4173868;28;20160;-45
2024/03/17 09:05:22;;;;;;;8.00;2.00;;;15.00;71.20;;;;;;4163319;28;20235;-41
2024/03/17 09:08:02;;;;;;;5.97;1.77;;;15.10;77.00;;;;;;4172182;28;20063;-44
2024/03/17 09:10:42;;;;;;;5.72;1.80;;;15.00;72.90;;;;;;4181076;28;20139;-41
2024/03/17 09:13:24;;;;;;;6.68;1.83;;;15.00;73.00;;;;;;4186572;28;20609;-44
2024/03/17 09:16:05;;;;;;;6.63;2.28;;;15.00;73.00;;;;;;4163780;28;20095;-42
2024/03/17 09:18:45;;;;;;;5.47;1.48;;;15.00;73.50;;;;;;4181382;28;20115;-44
2024/03/17 09:21:26;;;;;;;4.00;1.73;;;15.10;74.10;;;;;;4166011;28;20051;-46
2024/03/17 09:24:08;;;;;;;7.00;2.22;;;15.10;74.00;;;;;;4166204;28;20056;-44
2024/03/17 09:26:48;;;;;;;3.33;1.92;;;15.10;74.10;;;;;;4173412;28;20094;-48
2024/03/17 09:29:28;;;;;;;5.85;2.20;;;15.20;74.20;;;;;;4181991;28;20063;-46
2024/03/17 09:32:11;;;;;;;4.72;2.15;;;15.20;74.40;;;;;;4186348;28;20201;-49
2024/03/17 09:34:51;;;;;;;7.95;2.13;;;15.20;74.40;;;;;;4186055;28;20417;-49
2024/03/17 09:37:32;;;;;;;4.60;2.47;;;15.30;74.30;;;;;;4184500;28;20086;-48
2024/03/17 09:40:15;;;;;;;4.10;2.15;;;15.30;74.00;;;;;;4169223;28;20101;-43
2024/03/17 09:42:56;;;;;;;5.93;1.85;;;15.40;74.40;;;;;;4186730;28;20163;-44
2024/03/17 09:45:37;;;;;;;9.65;2.30;;;15.40;74.30;;;;;;4172376;28;20060;-45
2024/03/17 09:48:19;;;;;;;3.22;2.30;;;15.40;75.40;;;;;;4184436;28;20055;-52
2024/03/17 09:51:01;;;;;;;14.10;2.63;;;15.50;74.70;;;;;;4169241;28;20067;-50
2024/03/17 09:53:43;;;;;;;7.53;2.53;;;15.60;74.80;;;;;;4167014;28;20503;-51
2024/03/17 09:56:23;;;;;;;;;;;16.10;73.80;;;;;;4168371;28;20137;-47
2024/03/17 09:59:04;;;;;;;7.10;3.08;;;16.70;72.10;;;;;;4169670;28;19928;-52
2024/03/17 10:01:47;;;;;;;5.38;2.88;;;17.40;70.10;;;;;;4180561;28;20143;-56
2024/03/17 10:04:33;;;;;;;6.05;2.53;;;18.00;68.10;;;;;;4186399;28;20067;-59
2024/03/17 10:07:14;;;;;;;7.35;2.88;;;18.40;66.10;;;;;;4179706;28;20474;-60
2024/03/17 10:10:13;;;;;;;7.68;3.13;;;18.90;64.80;;;;;;4169381;28;20060;-59
2024/03/17 10:12:53;;;;;;;8.65;3.55;;;19.40;63.20;;;;;;4169075;28;20048;-56
2024/03/17 10:15:35;;;;;;;8.07;4.15;;;19.70;61.50;;;;;;4176866;28;20106;-51
2024/03/17 10:18:22;;;;;;;8.82;3.80;;;19.90;60.40;;;;;;4177512;28;20109;-49
2024/03/17 10:21:03;;;;;;;9.38;4.20;;;20.00;59.90;;;;;;4173926;28;20042;-51
2024/03/17 10:23:43;;;;;;;8.68;3.80;;;20.00;59.90;;;;;;4169038;28;20493;-52
2024/03/17 10:26:24;;;;;;;7.25;4.20;;;19.90;60.50;;;;;;4177093;28;20129;-59
2024/03/17 10:29:05;;;;;;;9.75;4.55;;;19.80;60.80;;;;;;4168512;28;20107;-51
2024/03/17 10:31:54;;;;;;;8.32;4.30;;;19.70;62.30;;;;;;4152466;28;20055;-51
2024/03/17 10:34:35;;;;;;;10.85;5.13;;;19.70;61.50;;;;;;4157285;28;20076;-50
2024/03/17 10:37:19;;;;;;;6.60;4.60;;;19.80;60.80;;;;;;4162675;28;20784;-53
2024/03/17 10:40:03;;;;;;;8.95;4.70;;;19.70;60.20;;;;;;4161478;28;20127;-51
2024/03/17 10:42:44;;;;;;;9.07;4.45;;;19.70;60.70;;;;;;4172920;28;20055;-51
2024/03/17 10:45:26;;;;;;;10.57;4.63;;;19.60;61.20;;;;;;4174724;28;20145;-55
2024/03/17 10:48:08;;;;;;;;;;;19.40;61.30;;;;;;4170360;28;20449;-55
2024/03/17 10:50:49;;;;;;;7.70;4.40;;;19.30;62.70;;;;;;4181838;28;19954;-52
2024/03/17 10:53:31;;;;;;;10.63;5.43;;;19.30;62.00;;;;;;4178363;28;20098;-57
2024/03/17 10:56:16;;;;;;;9.20;4.95;;;19.30;62.20;;;;;;4163948;28;20126;-58
2024/03/17 10:59:03;;;;;;;10.23;5.28;;;19.30;62.10;;;;;;4167812;28;20086;-58
2024/03/17 11:01:44;;;;;;;7.53;4.68;;;19.30;62.30;;;;;;4172489;28;20198;-58
2024/03/17 11:04:24;;;;;;;7.85;4.57;;;19.40;62.20;;;;;;4171686;28;20111;-60
2024/03/17 11:07:04;;;;;;;10.98;5.25;;;19.50;61.40;;;;;;4169807;28;20170;-58
2024/03/17 11:09:47;;;;;;;6.43;4.53;;;19.60;60.40;;;;;;4179549;28;20055;-59
2024/03/17 11:12:49;;;;;;;7.60;4.63;;;19.60;60.20;;;;;;4185837;28;20079;-58
2024/03/17 11:15:42;;;;;;;9.30;5.10;;;19.60;59.90;;;;;;4184377;28;20072;-55
2024/03/17 11:18:41;;;;;;;9.07;5.18;;;19.60;60.20;;;;;;4184455;28;20395;-58
2024/03/17 11:21:25;;;;;;;8.23;4.35;;;19.50;59.90;;;;;;4178457;28;20155;-55
2024/03/17 11:24:05;;;;;;;7.95;5.10;;;19.50;60.00;;;;;;4179091;28;20087;-56
2024/03/17 11:26:46;;;;;;;6.68;4.53;;;19.40;59.80;;;;;;4169291;28;20416;-56
2024/03/17 11:29:32;;;;;;;7.80;4.57;;;19.20;60.10;;;;;;4180084;28;20110;-55
2024/03/17 11:32:28;;;;;;;8.43;4.80;;;19.10;60.20;;;;;;4169750;28;20498;-55
2024/03/17 11:35:15;;;;;;;8.27;5.28;;;19.00;60.50;;;;;;4171371;28;20402;-53
2024/03/17 11:37:54;;;;;;;10.30;7.05;;;19.00;60.70;;;;;;4184859;28;20093;-56
2024/03/17 11:40:34;;;;;;;13.23;5.78;;;19.10;60.70;;;;;;4185593;28;20091;-57
2024/03/17 11:43:17;;;;;;;12.18;6.68;;;19.10;60.60;;;;;;4189039;28;20059;-58
2024/03/17 11:45:57;;;;;;;8.23;5.25;;;19.10;60.70;;;;;;4188159;28;20076;-58
2024/03/17 11:48:38;;;;;;;8.05;5.70;;;19.10;61.80;;;;;;4186164;28;20055;-57
2024/03/17 11:51:17;;;;;;;;;;;19.00;60.90;;;;;;4186400;28;20395;-58
2024/03/17 11:53:59;;;;;;;8.57;5.93;;;18.90;61.30;;;;;;4172030;28;20015;-59
2024/03/17 11:56:38;;;;;;;7.80;5.43;;;18.90;61.80;;;;;;4167737;28;20091;-57
2024/03/17 11:59:19;;;;;;;8.13;5.25;;;18.90;61.50;;;;;;4186012;28;20502;-57
2024/03/17 12:01:59;;;;;;;8.75;5.70;;;18.90;61.10;;;;;;4170963;28;20060;-58
2024/03/17 12:04:43;;;;;;;8.55;5.78;;;19.00;60.80;;;;;;4171810;28;20099;-58
2024/03/17 12:07:23;;;;;;;9.77;5.20;;;19.00;61.20;;;;;;4170402;28;20059;-58
2024/03/17 12:10:06;;;;;;;9.40;6.05;;;19.00;60.50;;;;;;4185679;28;20055;-57
2024/03/17 12:12:48;;;;;;;8.07;6.03;;;19.00;61.00;;;;;;4188149;28;20109;-59
2024/03/17 12:15:29;;;;;;;11.30;7.30;;;18.90;60.30;;;;;;4188495;28;20563;-58
2024/03/17 12:18:20;;;;;;;8.77;6.35;;;18.90;60.50;;;;;;4174762;28;20076;-57
2024/03/17 12:21:01;;;;;;;10.80;5.75;;;18.80;59.90;;;;;;4153784;28;20072;-55
2024/03/17 12:23:40;;;;;;;9.25;6.78;;;18.80;60.60;;;;;;4140691;28;20059;-55
2024/03/17 12:26:20;;;;;;;10.60;7.18;;;18.80;60.80;;;;;;4180646;28;20058;-56
2024/03/17 12:28:59;;;;;;;9.13;7.30;;;18.90;60.50;;;;;;4179310;28;20052;-52
2024/03/17 12:31:39;;;;;;;17.17;8.10;;;18.90;60.10;;;;;;4178863;28;20052;-55
2024/03/17 12:34:19;;;;;;;11.45;6.80;;;18.90;60.30;;;;;;4187437;28;20387;-55
2024/03/17 12:37:00;;;;;;;11.30;7.03;;;19.00;60.40;;;;;;4187181;28;20059;-57
2024/03/17 12:39:43;;;;;;;11.23;7.45;;;19.00;61.80;;;;;;4177644;28;20132;-56
2024/03/17 12:42:24;;;;;;;13.10;6.80;;;19.00;61.00;;;;;;4186854;28;20048;-57
2024/03/17 12:45:10;;;;;;;9.38;6.38;;;19.00;62.10;;;;;;4188248;28;20055;-58
2024/03/17 12:47:50;;;;;;;8.02;6.38;;;19.00;60.20;;;;;;4170294;28;20130;-58
2024/03/17 12:50:31;;;;;;;9.20;6.97;;;19.00;60.10;;;;;;4186389;28;20110;-57
2024/03/17 12:53:17;;;;;;;11.93;5.38;;;19.00;59.80;;;;;;4175682;28;20136;-58
2024/03/17 13:02:03;;;;;;;9.70;6.93;;;18.90;59.70;;;;;;4170160;28;20051;-57
2024/03/17 13:04:43;;;;;;;6.85;5.65;;;18.90;59.50;;;;;;4171894;28;20059;-58
2024/03/17 13:07:23;;;;;;;11.13;6.93;;;18.90;59.30;;;;;;4180135;28;20190;-64
2024/03/17 13:10:07;;;;;;;14.43;7.45;;;18.80;59.30;;;;;;4169108;28;20059;-54
2024/03/17 13:12:47;;;;;;;9.27;6.30;;;18.70;59.70;;;;;;4147265;28;20148;-55
2024/03/17 13:15:28;;;;;;;9.73;6.38;;;18.70;60.10;;;;;;4186826;28;20471;-52
2024/03/17 13:18:08;;;;;;;9.63;7.33;;;18.60;60.30;;;;;;4186573;28;20085;-55
2024/03/17 13:20:51;;;;;;;12.70;7.13;;;18.60;61.10;;;;;;4159296;28;20107;-53
2024/03/17 13:23:31;;;;;;;9.95;7.07;;;18.60;61.20;;;;;;4174812;28;20059;-53
2024/03/17 13:26:13;;;;;;;10.25;7.35;;;18.70;61.40;;;;;;4184894;28;20510;-56
2024/03/17 13:28:52;;;;;;;9.27;6.10;;;18.70;61.80;;;;;;4182498;28;20060;-56
2024/03/17 13:31:32;;;;;;;10.48;6.70;;;18.70;62.00;;;;;;4170158;28;20055;-55
2024/03/17 13:34:12;;;;;;;8.95;7.13;;;18.80;61.10;;;;;;4169663;28;20538;-56
2024/03/17 13:36:54;;;;;;;8.15;6.60;;;18.80;61.00;;;;;;4177311;28;20072;-54
2024/03/17 13:39:35;;;;;;;9.90;6.78;;;18.80;62.00;;;;;;4180372;28;20051;-52
2024/03/17 13:42:17;;;;;;;9.95;6.25;;;18.70;60.90;;;;;;4175008;28;20079;-53
2024/03/17 13:44:57;;;;;;;8.23;6.78;;;18.70;61.40;;;;;;4173911;28;20097;-54
2024/03/17 13:47:37;;;;;;;7.97;6.68;;;18.60;61.60;;;;;;4181073;28;20509;-54
2024/03/17 13:50:18;;;;;;;11.68;6.80;;;18.60;62.00;;;;;;4170494;28;20055;-53
2024/03/17 13:52:58;;;;;;;6.75;6.05;;;18.60;62.00;;;;;;4169619;28;20052;-54
2024/03/17 13:55:39;;;;;;;7.07;6.38;;;18.60;61.40;;;;;;4169450;28;20534;-52
2024/03/17 13:58:20;;;;;;;8.93;7.13;;;18.60;61.40;;;;;;4169966;28;20121;-52
2024/03/17 14:01:00;;;;;;;12.30;7.53;;;18.60;62.00;;;;;;4159292;28;20060;-50
2024/03/17 14:03:42;;;;;;;10.90;7.07;;;18.50;63.00;;;;;;4168914;28;20210;-55
2024/03/17 14:06:22;;;;;;;8.05;6.45;;;18.50;61.70;;;;;;4169107;28;20047;-56